Terminal Aerodrome Forecast
Issued by NWS

Home | Current Version | Previous Version | Text Only | Print | Product List | Glossary On
Versions: 1 2 3 4 5 6 7 8 9 10 11 12 13 14 15 16 17
000
FTUS43 KEAX 270200 AAA
TAFMKC
TAF AMD
KMKC 270225Z 2702/2724 33005KT P6SM -RA SCT015 OVC030
     FM270400 32009KT 5SM -RA BR OVC008
     FM270600 30011KT P6SM BKN009
     FM271700 31011KT P6SM BKN015
     FM272000 31009KT P6SM SCT025=

USA.gov is the U.S. government's official web portal to all federal, state and local government web resources and services.